Time;durP1;ratioP1;P1;durP2;ratioP2;P2;SDS_P1;SDS_P2;PMS_P1;PMS_P2;Temp;Humidity;BMP_temperature;BMP_pressure;BME280_temperature;BME280_humidity;BME280_pressure;Samples;Min_cycle;Max_cycle;Signal;HPM_P1;HPM_P2
2021/12/25 00:01:35;;;;;;;43.37;20.03;;;;;;;;;;6182651;23;20180;-92
2021/12/25 00:04:40;;;;;;;50.07;22.77;;;;;;;;;;6186055;23;20172;-91
2021/12/25 00:07:46;;;;;;;57.03;23.60;;;;;;;;;;6183542;23;20168;-93
2021/12/25 00:10:53;;;;;;;53.97;22.97;;;;;;;;;;6185055;23;20679;-92
2021/12/25 00:13:59;;;;;;;49.17;22.60;;;;;;;;;;6183899;23;20172;-91
2021/12/25 00:17:04;;;;;;;48.53;21.50;;;;;;;;;;6182605;23;20204;-92
2021/12/25 00:20:10;;;;;;;49.07;21.43;;;;;;;;;;6184106;23;20164;-91
2021/12/25 00:23:15;;;;;;;47.13;21.03;;;;;;;;;;6185393;23;20195;-92
2021/12/25 00:26:38;;;;;;;45.63;21.13;;;;;;;;;;6184118;23;20206;-92
2021/12/25 00:29:57;;;;;;;48.83;20.93;;;;;;;;;;6185276;23;20175;-92
2021/12/25 00:33:06;;;;;;;47.47;20.03;;;;;;;;;;6184244;23;20156;-91
2021/12/25 00:36:12;;;;;;;49.13;20.80;;;;;;;;;;6184103;23;20212;-92
2021/12/25 00:39:18;;;;;;;44.93;20.63;;;;;;;;;;6184627;23;20171;-92
2021/12/25 00:42:33;;;;;;;46.10;20.50;;;;;;;;;;6185222;23;20247;-93
2021/12/25 00:45:39;;;;;;;39.37;18.67;;;;;;;;;;6185365;23;20156;-90
2021/12/25 00:48:45;;;;;;;39.47;18.53;;;;;;;;;;6184161;23;20155;-93
2021/12/25 00:51:50;;;;;;;38.13;18.60;;;;;;;;;;6183842;23;20269;-91
2021/12/25 00:54:56;;;;;;;39.73;18.17;;;;;;;;;;6184877;23;20168;-90
2021/12/25 00:58:03;;;;;;;37.60;16.17;;;;;;;;;;6184038;23;20229;-91
2021/12/25 01:01:09;;;;;;;36.13;17.33;;;;;;;;;;6182423;23;20152;-91
2021/12/25 01:04:14;;;;;;;37.23;17.03;;;;;;;;;;6183144;23;20183;-93
2021/12/25 01:07:20;;;;;;;34.53;16.43;;;;;;;;;;6184167;23;20283;-91
2021/12/25 01:10:25;;;;;;;31.93;15.97;;;;;;;;;;6182653;23;20272;-91
2021/12/25 01:13:36;;;;;;;33.87;15.30;;;;;;;;;;6182643;23;20180;-91
2021/12/25 01:17:12;;;;;;;36.70;15.87;;;;;;;;;;6183326;23;20183;-92
2021/12/25 01:24:08;;;;;;;31.70;15.60;;;;;;;;;;6185474;23;20199;-93
2021/12/25 01:28:05;;;;;;;31.03;15.20;;;;;;;;;;6183985;23;20180;-90
2021/12/25 01:31:17;;;;;;;31.90;15.73;;;;;;;;;;6183600;23;20187;-90
2021/12/25 01:34:54;;;;;;;32.83;15.30;;;;;;;;;;6183328;23;20499;-92
2021/12/25 01:38:38;;;;;;;35.70;16.00;;;;;;;;;;6164797;23;20187;-90
2021/12/25 01:47:44;;;;;;;32.67;15.23;;;;;;;;;;6200749;23;20167;-92
2021/12/25 01:49:42;;;;;;;36.10;16.10;;;;;;;;;;6183115;23;20259;-93
2021/12/25 01:52:46;;;;;;;36.20;15.97;;;;;;;;;;6182601;23;20469;-92
2021/12/25 01:55:52;;;;;;;33.87;15.47;;;;;;;;;;6182761;23;20225;-92
2021/12/25 01:58:57;;;;;;;32.40;14.57;;;;;;;;;;6183573;23;20192;-92
2021/12/25 02:02:02;;;;;;;34.13;16.37;;;;;;;;;;6184280;23;20208;-90
2021/12/25 02:05:09;;;;;;;25.93;13.93;;;;;;;;;;6183147;23;20171;-91
2021/12/25 02:08:14;;;;;;;29.57;14.73;;;;;;;;;;6182481;23;20167;-91
2021/12/25 02:11:19;;;;;;;34.00;15.10;;;;;;;;;;6183952;23;20292;-91
2021/12/25 02:14:26;;;;;;;33.57;14.77;;;;;;;;;;6181510;23;20167;-91
2021/12/25 02:17:48;;;;;;;29.40;13.53;;;;;;;;;;6183163;23;20156;-91
2021/12/25 02:21:08;;;;;;;34.53;14.80;;;;;;;;;;6180381;23;20223;-92
2021/12/25 02:24:14;;;;;;;35.43;15.27;;;;;;;;;;6182957;23;20248;-91
2021/12/25 02:27:20;;;;;;;32.37;14.33;;;;;;;;;;6183657;23;20148;-91
2021/12/25 02:30:25;;;;;;;29.67;13.83;;;;;;;;;;6183281;23;20151;-92
2021/12/25 02:33:31;;;;;;;29.30;13.90;;;;;;;;;;6185227;23;20191;-91
2021/12/25 02:36:38;;;;;;;26.23;12.63;;;;;;;;;;6183771;23;20168;-92
2021/12/25 02:39:43;;;;;;;28.93;12.67;;;;;;;;;;6184999;23;20219;-93
2021/12/25 02:42:52;;;;;;;28.60;13.43;;;;;;;;;;6183013;23;20191;-91
2021/12/25 02:46:02;;;;;;;27.87;13.80;;;;;;;;;;6182826;23;20260;-90
2021/12/25 02:49:11;;;;;;;27.07;13.47;;;;;;;;;;6183627;23;20163;-91
2021/12/25 02:52:21;;;;;;;30.83;14.23;;;;;;;;;;6185045;23;20581;-92
2021/12/25 02:55:26;;;;;;;31.57;14.33;;;;;;;;;;6183370;23;20172;-92
2021/12/25 02:58:33;;;;;;;24.93;13.23;;;;;;;;;;6183193;23;20167;-91
2021/12/25 03:01:38;;;;;;;32.43;14.77;;;;;;;;;;6183688;23;20172;-92
2021/12/25 03:04:44;;;;;;;27.67;14.53;;;;;;;;;;6183261;23;20167;-91
2021/12/25 03:07:52;;;;;;;28.07;13.07;;;;;;;;;;6184893;23;20176;-91
2021/12/25 03:10:58;;;;;;;25.47;13.00;;;;;;;;;;6182452;23;20215;-91
2021/12/25 03:14:30;;;;;;;30.07;13.80;;;;;;;;;;6183020;23;20168;-91
2021/12/25 03:17:37;;;;;;;27.10;12.50;;;;;;;;;;6182406;23;20172;-92
2021/12/25 03:20:45;;;;;;;27.13;12.57;;;;;;;;;;6182567;23;20168;-91
2021/12/25 03:23:53;;;;;;;26.33;12.60;;;;;;;;;;6185024;23;20195;-93
2021/12/25 03:26:58;;;;;;;27.07;13.10;;;;;;;;;;6185009;23;20172;-90
2021/12/25 03:30:04;;;;;;;30.47;13.90;;;;;;;;;;6183537;23;20175;-92
2021/12/25 03:33:11;;;;;;;29.53;12.93;;;;;;;;;;6184092;23;20183;-89
2021/12/25 03:36:17;;;;;;;27.60;13.63;;;;;;;;;;6185125;23;20152;-91
2021/12/25 03:39:25;;;;;;;29.37;13.63;;;;;;;;;;6186671;23;20163;-92
2021/12/25 03:42:30;;;;;;;26.97;12.17;;;;;;;;;;6185577;23;20180;-93
2021/12/25 03:45:36;;;;;;;29.90;13.73;;;;;;;;;;6186355;23;20168;-92
2021/12/25 03:49:01;;;;;;;30.07;13.30;;;;;;;;;;6186510;23;20232;-92
2021/12/25 03:58:59;;;;;;;25.83;12.40;;;;;;;;;;6145336;23;20216;-91
2021/12/25 04:02:12;;;;;;;32.43;13.33;;;;;;;;;;6184876;23;20212;-92
2021/12/25 04:05:19;;;;;;;26.67;12.40;;;;;;;;;;6183170;23;20244;-92
2021/12/25 04:08:30;;;;;;;23.20;11.77;;;;;;;;;;6185857;23;20179;-91
2021/12/25 04:11:40;;;;;;;27.50;12.20;;;;;;;;;;6182890;23;20172;-93
2021/12/25 04:14:46;;;;;;;27.43;12.17;;;;;;;;;;6184210;23;20148;-90
2021/12/25 04:17:51;;;;;;;24.97;11.30;;;;;;;;;;6183660;23;20191;-90
2021/12/25 04:20:57;;;;;;;26.57;12.13;;;;;;;;;;6183490;23;20221;-91
2021/12/25 04:24:04;;;;;;;26.30;11.50;;;;;;;;;;6185147;23;20199;-91
2021/12/25 04:27:14;;;;;;;25.50;10.77;;;;;;;;;;6183937;23;20184;-92
2021/12/25 04:30:29;;;;;;;24.40;10.67;;;;;;;;;;6183658;23;20216;-91
2021/12/25 05:04:48;;;;;;;22.73;10.40;;;;;;;;;;6201879;23;20215;-91
2021/12/25 05:08:01;;;;;;;22.77;10.77;;;;;;;;;;6183825;23;20169;-92
2021/12/25 05:11:06;;;;;;;23.80;11.03;;;;;;;;;;6184831;23;20172;-91
2021/12/25 05:14:11;;;;;;;23.60;11.33;;;;;;;;;;6186375;23;20175;-92
2021/12/25 05:17:24;;;;;;;23.90;11.33;;;;;;;;;;6185815;23;20159;-91
2021/12/25 05:20:30;;;;;;;23.27;11.13;;;;;;;;;;6186776;23;20207;-91
2021/12/25 05:23:36;;;;;;;21.20;9.90;;;;;;;;;;6184949;23;20191;-92
2021/12/25 05:26:42;;;;;;;21.33;9.97;;;;;;;;;;6184462;23;20179;-91
2021/12/25 05:29:47;;;;;;;20.00;9.10;;;;;;;;;;6184276;23;20163;-91
2021/12/25 05:32:58;;;;;;;17.30;8.73;;;;;;;;;;6184228;23;20172;-91
2021/12/25 05:36:27;;;;;;;21.03;9.50;;;;;;;;;;6185436;23;20224;-91
2021/12/25 05:39:51;;;;;;;20.50;10.00;;;;;;;;;;6185022;23;20225;-93
2021/12/25 05:42:59;;;;;;;20.07;9.27;;;;;;;;;;6185383;23;20208;-91
2021/12/25 05:46:04;;;;;;;21.30;9.60;;;;;;;;;;6186255;23;20163;-90
2021/12/25 05:49:14;;;;;;;20.80;8.67;;;;;;;;;;6185897;23;20227;-91
2021/12/25 05:52:42;;;;;;;21.03;9.90;;;;;;;;;;6183351;23;20199;-91
2021/12/25 05:56:13;;;;;;;18.93;8.97;;;;;;;;;;6201243;23;20240;-91
2021/12/25 05:59:28;;;;;;;21.07;8.67;;;;;;;;;;6183693;23;20172;-91
2021/12/25 06:02:53;;;;;;;19.60;8.83;;;;;;;;;;6172097;23;20281;-91
2021/12/25 06:06:07;;;;;;;19.73;9.00;;;;;;;;;;6170264;23;20176;-90
2021/12/25 06:09:13;;;;;;;23.73;9.23;;;;;;;;;;6170859;23;20180;-92
2021/12/25 06:12:18;;;;;;;19.97;9.30;;;;;;;;;;6172861;23;20164;-91
2021/12/25 06:15:24;;;;;;;18.93;9.13;;;;;;;;;;6172107;23;20160;-91
2021/12/25 06:18:44;;;;;;;19.00;9.37;;;;;;;;;;6173289;23;20225;-91
2021/12/25 06:21:54;;;;;;;18.87;9.03;;;;;;;;;;6172737;23;20164;-88
2021/12/25 06:25:14;;;;;;;21.60;9.27;;;;;;;;;;6169859;23;20273;-91
2021/12/25 06:28:33;;;;;;;23.43;9.83;;;;;;;;;;6174783;23;20186;-92
2021/12/25 06:31:44;;;;;;;18.97;9.03;;;;;;;;;;6175670;23;20152;-91
2021/12/25 06:35:12;;;;;;;24.83;10.87;;;;;;;;;;6172051;23;20157;-91
2021/12/25 06:38:44;;;;;;;21.20;9.47;;;;;;;;;;6173290;23;20183;-91
2021/12/25 06:41:58;;;;;;;20.70;9.47;;;;;;;;;;6172434;23;20168;-90
2021/12/25 06:45:04;;;;;;;23.33;10.17;;;;;;;;;;6171792;23;20640;-91
2021/12/25 06:48:10;;;;;;;21.77;10.47;;;;;;;;;;6175551;23;20183;-92
2021/12/25 06:51:35;;;;;;;19.67;9.30;;;;;;;;;;6173536;23;20152;-92
2021/12/25 06:54:59;;;;;;;18.87;8.87;;;;;;;;;;6173187;23;20624;-90
2021/12/25 06:58:17;;;;;;;20.70;9.57;;;;;;;;;;6175321;23;20213;-92
2021/12/25 07:01:23;;;;;;;20.10;10.20;;;;;;;;;;6172381;23;20168;-91
2021/12/25 07:04:28;;;;;;;20.27;9.90;;;;;;;;;;6177331;23;20225;-92
2021/12/25 07:07:56;;;;;;;25.23;10.00;;;;;;;;;;6174834;23;20180;-93
2021/12/25 07:11:07;;;;;;;26.73;11.10;;;;;;;;;;6157074;23;20230;-92
2021/12/25 07:14:37;;;;;;;20.63;9.87;;;;;;;;;;6156815;23;20212;-91
2021/12/25 07:17:55;;;;;;;22.63;10.27;;;;;;;;;;6155941;23;20359;-92
2021/12/25 07:21:21;;;;;;;24.60;9.87;;;;;;;;;;6173511;23;20153;-92
2021/12/25 07:24:29;;;;;;;21.57;9.00;;;;;;;;;;6173927;23;20181;-91
2021/12/25 07:27:59;;;;;;;18.13;9.20;;;;;;;;;;6174291;23;20157;-92
2021/12/25 07:31:05;;;;;;;24.37;10.30;;;;;;;;;;6154470;23;20256;-93
2021/12/25 07:34:10;;;;;;;21.50;10.20;;;;;;;;;;6157419;23;20176;-90
2021/12/25 07:37:15;;;;;;;20.57;9.43;;;;;;;;;;6154225;23;20236;-89
2021/12/25 07:40:21;;;;;;;19.93;9.37;;;;;;;;;;6154728;23;20189;-89
2021/12/25 07:43:27;;;;;;;20.37;9.23;;;;;;;;;;6155781;23;20200;-92
2021/12/25 07:46:40;;;;;;;20.67;9.87;;;;;;;;;;6153646;23;20297;-90
2021/12/25 07:49:45;;;;;;;19.97;9.07;;;;;;;;;;6159656;23;20172;-90
2021/12/25 07:52:51;;;;;;;23.07;10.40;;;;;;;;;;6156254;23;20240;-91
2021/12/25 07:55:56;;;;;;;20.10;10.10;;;;;;;;;;6156140;23;20180;-91
2021/12/25 07:59:04;;;;;;;18.57;9.30;;;;;;;;;;6157189;23;20167;-91
2021/12/25 08:02:10;;;;;;;19.30;9.33;;;;;;;;;;6159513;23;20231;-91
2021/12/25 08:05:15;;;;;;;19.77;7.87;;;;;;;;;;6186092;23;20251;-91
2021/12/25 08:08:20;;;;;;;17.63;8.30;;;;;;;;;;6184819;23;20155;-92
2021/12/25 08:11:25;;;;;;;17.40;8.30;;;;;;;;;;6185420;23;20188;-90
2021/12/25 08:14:58;;;;;;;22.90;9.87;;;;;;;;;;6184897;23;20548;-89
2021/12/25 08:18:06;;;;;;;20.00;9.80;;;;;;;;;;6185888;23;20554;-91
2021/12/25 08:21:11;;;;;;;18.27;8.23;;;;;;;;;;6203767;23;20239;-89
2021/12/25 08:24:34;;;;;;;18.37;8.93;;;;;;;;;;6204014;23;20192;-90
2021/12/25 08:27:58;;;;;;;17.97;8.00;;;;;;;;;;6203055;23;20208;-89
2021/12/25 08:31:22;;;;;;;18.13;8.60;;;;;;;;;;6201594;23;20180;-90
2021/12/25 08:34:29;;;;;;;18.17;7.67;;;;;;;;;;6201913;23;20176;-91
2021/12/25 08:37:43;;;;;;;15.90;7.83;;;;;;;;;;6186527;23;20264;-90
2021/12/25 08:40:53;;;;;;;14.80;7.57;;;;;;;;;;6184909;23;20220;-92
2021/12/25 08:44:05;;;;;;;13.93;7.60;;;;;;;;;;6185850;23;20253;-91
2021/12/25 08:47:11;;;;;;;13.73;7.67;;;;;;;;;;6184448;23;20168;-92
2021/12/25 08:50:18;;;;;;;17.60;9.00;;;;;;;;;;6183999;23;20172;-91
2021/12/25 08:53:24;;;;;;;17.00;7.57;;;;;;;;;;6184676;23;20167;-91
2021/12/25 08:56:30;;;;;;;16.57;7.73;;;;;;;;;;6185756;23;20199;-93
2021/12/25 08:59:36;;;;;;;18.93;8.73;;;;;;;;;;6186509;23;20285;-91
2021/12/25 09:02:41;;;;;;;16.10;7.73;;;;;;;;;;6187279;23;20190;-90
2021/12/25 09:19:04;;;;;;;16.10;7.60;;;;;;;;;;6201225;23;20223;-92
2021/12/25 09:22:11;;;;;;;12.73;6.70;;;;;;;;;;6181909;23;20151;-93
2021/12/25 09:25:16;;;;;;;13.90;6.87;;;;;;;;;;6182475;23;20187;-90
2021/12/25 09:28:22;;;;;;;16.20;6.50;;;;;;;;;;6187165;23;20168;-90
2021/12/25 09:31:27;;;;;;;15.83;6.63;;;;;;;;;;6186853;23;20171;-92
2021/12/25 09:34:34;;;;;;;16.80;7.87;;;;;;;;;;6188909;23;20171;-91
2021/12/25 09:37:43;;;;;;;16.37;8.47;;;;;;;;;;6188632;23;20168;-92
2021/12/25 09:40:50;;;;;;;21.70;9.97;;;;;;;;;;6188766;23;20192;-92
2021/12/25 09:43:56;;;;;;;17.17;8.50;;;;;;;;;;6189055;23;20286;-93
2021/12/25 09:53:52;;;;;;;12.63;6.13;;;;;;;;;;6188886;23;20169;-94
2021/12/25 14:24:16;;;;;;;8.50;4.07;;;;;;;;;;6144570;23;20207;-91
2021/12/25 14:27:23;;;;;;;7.17;4.47;;;;;;;;;;6127814;23;20213;-92
2021/12/25 14:30:29;;;;;;;11.43;5.23;;;;;;;;;;6126702;23;20173;-92
2021/12/25 14:33:36;;;;;;;9.77;4.00;;;;;;;;;;6145186;23;20545;-92
2021/12/25 14:36:43;;;;;;;8.17;3.77;;;;;;;;;;6126372;23;20712;-91
2021/12/25 14:40:00;;;;;;;9.60;4.23;;;;;;;;;;6126241;23;20177;-92
2021/12/25 14:43:06;;;;;;;8.40;4.00;;;;;;;;;;6127673;23;20205;-92
2021/12/25 14:46:19;;;;;;;9.87;4.07;;;;;;;;;;6127740;23;20201;-92
2021/12/25 14:49:24;;;;;;;10.10;4.57;;;;;;;;;;6128290;23;20153;-93
2021/12/25 14:52:30;;;;;;;9.23;4.40;;;;;;;;;;6129035;23;20197;-92
2021/12/25 14:55:40;;;;;;;8.77;4.50;;;;;;;;;;6127859;23;20177;-92
2021/12/25 14:58:47;;;;;;;8.17;4.27;;;;;;;;;;6127820;23;20169;-92
2021/12/25 15:01:53;;;;;;;8.67;4.00;;;;;;;;;;6129172;23;20692;-92
2021/12/25 15:04:59;;;;;;;9.10;4.20;;;;;;;;;;6127543;23;20210;-93
2021/12/25 15:08:17;;;;;;;8.43;4.13;;;;;;;;;;6126817;23;20165;-92
2021/12/25 15:11:24;;;;;;;9.67;4.23;;;;;;;;;;6127229;23;20218;-90
2021/12/25 15:14:30;;;;;;;8.90;4.20;;;;;;;;;;6128157;23;20165;-92
2021/12/25 15:17:36;;;;;;;6.93;3.80;;;;;;;;;;6128482;23;20169;-92
2021/12/25 15:20:42;;;;;;;6.73;3.40;;;;;;;;;;6129131;23;20225;-92
2021/12/25 15:23:48;;;;;;;12.63;3.87;;;;;;;;;;6100734;23;20171;-93
2021/12/25 15:26:58;;;;;;;6.40;3.43;;;;;;;;;;6114533;23;20194;-93
2021/12/25 15:30:10;;;;;;;8.83;4.40;;;;;;;;;;6116261;23;20173;-91
2021/12/25 15:33:19;;;;;;;7.07;3.57;;;;;;;;;;6114981;23;20173;-93
2021/12/25 15:36:26;;;;;;;6.87;3.90;;;;;;;;;;6114497;23;20182;-92
2021/12/25 15:39:32;;;;;;;9.53;4.47;;;;;;;;;;6099006;23;20198;-92
2021/12/25 15:42:40;;;;;;;8.50;4.40;;;;;;;;;;6114408;23;20246;-91
2021/12/25 15:45:46;;;;;;;11.23;4.57;;;;;;;;;;6115783;23;20859;-92
2021/12/25 15:48:57;;;;;;;6.60;3.70;;;;;;;;;;6114485;23;20477;-93
2021/12/25 15:52:03;;;;;;;6.07;3.70;;;;;;;;;;6114129;23;20233;-91
2021/12/25 15:55:09;;;;;;;8.33;3.57;;;;;;;;;;6114154;23;20178;-92
2021/12/25 15:58:19;;;;;;;5.10;3.03;;;;;;;;;;6097429;23;20182;-91
2021/12/25 16:01:24;;;;;;;2.80;1.90;;;;;;;;;;6096983;23;20280;-91
2021/12/25 16:04:30;;;;;;;2.27;1.53;;;;;;;;;;6112561;23;20174;-92
2021/12/25 16:07:35;;;;;;;2.43;1.30;;;;;;;;;;6114984;23;20158;-92
2021/12/25 16:10:41;;;;;;;2.93;1.30;;;;;;;;;;6114447;23;20234;-91
2021/12/25 16:13:49;;;;;;;2.60;1.27;;;;;;;;;;6115139;23;20617;-92
2021/12/25 16:16:59;;;;;;;1.53;1.00;;;;;;;;;;6114993;23;20166;-93
2021/12/25 16:20:05;;;;;;;2.70;1.23;;;;;;;;;;6115267;23;20174;-92
2021/12/25 16:23:11;;;;;;;2.07;1.20;;;;;;;;;;6140039;23;20176;-91
2021/12/25 16:26:17;;;;;;;1.93;1.40;;;;;;;;;;6126441;23;20200;-90
2021/12/25 16:29:25;;;;;;;2.27;1.33;;;;;;;;;;6128259;23;20221;-92
2021/12/25 16:32:31;;;;;;;1.73;1.13;;;;;;;;;;6128322;23;20164;-92
2021/12/25 16:35:37;;;;;;;3.13;1.30;;;;;;;;;;6128063;23;20682;-93
2021/12/25 16:38:43;;;;;;;2.00;1.23;;;;;;;;;;6129215;23;20173;-92
2021/12/25 16:41:49;;;;;;;2.73;1.70;;;;;;;;;;6124972;23;20231;-91
2021/12/25 16:44:57;;;;;;;2.50;1.50;;;;;;;;;;6126600;23;20201;-92
2021/12/25 16:48:05;;;;;;;2.47;1.50;;;;;;;;;;6127959;23;20164;-92
2021/12/25 16:51:15;;;;;;;5.30;2.07;;;;;;;;;;6144868;23;20172;-91
2021/12/25 16:54:21;;;;;;;2.37;1.57;;;;;;;;;;6128378;23;20156;-92
2021/12/25 16:57:27;;;;;;;3.90;2.00;;;;;;;;;;6126313;23;20290;-91
2021/12/25 17:00:38;;;;;;;2.63;1.53;;;;;;;;;;6126645;23;20385;-91
2021/12/25 17:03:43;;;;;;;2.07;1.30;;;;;;;;;;6128613;23;20901;-92
2021/12/25 17:07:01;;;;;;;3.27;1.23;;;;;;;;;;6127043;23;20253;-92
2021/12/25 17:10:07;;;;;;;7.70;1.77;;;;;;;;;;6126967;23;20173;-92
2021/12/25 17:13:15;;;;;;;3.03;1.70;;;;;;;;;;6127106;23;20217;-91
2021/12/25 17:16:24;;;;;;;3.67;1.83;;;;;;;;;;6126799;23;20158;-92
2021/12/25 17:19:29;;;;;;;5.00;2.10;;;;;;;;;;6131143;23;20150;-92
2021/12/25 17:22:35;;;;;;;4.30;2.03;;;;;;;;;;6130329;23;20188;-90
2021/12/25 17:25:41;;;;;;;5.43;2.00;;;;;;;;;;6127602;23;20197;-91
2021/12/25 17:28:46;;;;;;;3.43;2.00;;;;;;;;;;6127770;23;20169;-92
2021/12/25 17:31:53;;;;;;;4.17;2.10;;;;;;;;;;6127356;23;20165;-91
2021/12/25 17:34:59;;;;;;;4.27;2.53;;;;;;;;;;6128140;23;20205;-92
2021/12/25 17:38:04;;;;;;;5.10;2.20;;;;;;;;;;6126258;23;20189;-91
2021/12/25 17:41:11;;;;;;;5.30;2.03;;;;;;;;;;6126433;23;20156;-92
2021/12/25 17:44:19;;;;;;;3.83;1.70;;;;;;;;;;6128092;23;20173;-90
2021/12/25 17:47:27;;;;;;;5.20;3.00;;;;;;;;;;6127646;23;20165;-91
2021/12/25 17:50:33;;;;;;;4.67;2.77;;;;;;;;;;6126472;23;20213;-89
2021/12/25 17:53:40;;;;;;;5.50;3.20;;;;;;;;;;6128253;23;20160;-92
2021/12/25 17:56:45;;;;;;;4.67;2.67;;;;;;;;;;6147391;23;20161;-92
2021/12/25 17:59:51;;;;;;;5.40;3.17;;;;;;;;;;6128445;23;20173;-91
2021/12/25 18:03:03;;;;;;;5.93;2.90;;;;;;;;;;6126921;23;20157;-91
2021/12/25 18:06:09;;;;;;;5.33;2.33;;;;;;;;;;6126024;23;20189;-92
2021/12/25 18:09:14;;;;;;;5.47;3.10;;;;;;;;;;6129855;23;20212;-91
2021/12/25 18:12:20;;;;;;;4.57;2.60;;;;;;;;;;6128252;23;20156;-91
2021/12/25 18:15:28;;;;;;;10.27;4.20;;;;;;;;;;6127350;23;20181;-92
2021/12/25 18:18:35;;;;;;;9.33;3.33;;;;;;;;;;6129025;23;20169;-91
2021/12/25 18:21:41;;;;;;;4.43;2.77;;;;;;;;;;6128136;23;20318;-90
2021/12/25 18:24:47;;;;;;;4.93;2.60;;;;;;;;;;6127202;23;20157;-91
2021/12/25 18:27:53;;;;;;;4.73;2.80;;;;;;;;;;6128589;23;20264;-91
2021/12/25 18:31:00;;;;;;;6.47;3.30;;;;;;;;;;6127605;23;20172;-93
2021/12/25 18:34:07;;;;;;;4.67;3.00;;;;;;;;;;6129463;23;20221;-91
2021/12/25 18:37:13;;;;;;;7.50;3.30;;;;;;;;;;6128789;23;20514;-90
2021/12/25 18:40:20;;;;;;;6.70;3.40;;;;;;;;;;6129162;23;20173;-90
2021/12/25 18:43:27;;;;;;;8.07;3.27;;;;;;;;;;6128913;23;20193;-91
2021/12/25 18:46:35;;;;;;;7.13;3.43;;;;;;;;;;6128103;23;20261;-91
2021/12/25 18:49:45;;;;;;;4.97;3.30;;;;;;;;;;6128293;23;20169;-93
2021/12/25 18:52:52;;;;;;;8.47;4.27;;;;;;;;;;6129612;23;20157;-91
2021/12/25 18:55:58;;;;;;;6.10;3.27;;;;;;;;;;6129724;23;20766;-91
2021/12/25 18:59:04;;;;;;;10.67;3.27;;;;;;;;;;6131336;23;20284;-92
2021/12/25 19:02:11;;;;;;;6.20;3.57;;;;;;;;;;6130112;23;20172;-92
2021/12/25 19:05:18;;;;;;;4.60;3.00;;;;;;;;;;6129081;23;20222;-92
2021/12/25 19:08:24;;;;;;;6.23;3.67;;;;;;;;;;6128774;23;20172;-90
2021/12/25 19:11:30;;;;;;;6.53;3.60;;;;;;;;;;6129612;23;20156;-92
2021/12/25 19:19:01;;;;;;;7.80;4.50;;;;;;;;;;6146866;23;20622;-90
2021/12/25 19:22:09;;;;;;;6.90;3.70;;;;;;;;;;6130529;23;20213;-89
2021/12/25 19:25:15;;;;;;;10.60;4.23;;;;;;;;;;6130530;23;20184;-90
2021/12/25 19:28:19;;;;;;;8.43;4.47;;;;;;;;;;6129225;23;20173;-91
2021/12/25 19:31:24;;;;;;;11.33;5.27;;;;;;;;;;6128606;23;20198;-89
2021/12/25 19:34:30;;;;;;;6.57;3.37;;;;;;;;;;6127879;23;20201;-90
2021/12/25 19:37:37;;;;;;;5.70;3.30;;;;;;;;;;6127018;23;20609;-89
2021/12/25 19:40:43;;;;;;;7.20;3.87;;;;;;;;;;6126423;23;20213;-89
2021/12/25 19:43:48;;;;;;;5.87;3.30;;;;;;;;;;6146576;23;20165;-89
2021/12/25 19:46:53;;;;;;;8.83;3.63;;;;;;;;;;6127873;23;20193;-91
2021/12/25 19:50:10;;;;;;;194.40;47.17;;;;;;;;;;6129058;23;20170;-93
2021/12/25 19:53:19;;;;;;;7.43;3.37;;;;;;;;;;6144233;23;20197;-90
2021/12/25 19:56:24;;;;;;;5.80;3.20;;;;;;;;;;6129585;23;20214;-91
2021/12/25 19:59:31;;;;;;;7.30;3.60;;;;;;;;;;6128677;23;20197;-90
2021/12/25 20:02:36;;;;;;;7.97;3.67;;;;;;;;;;6128988;23;20493;-92
2021/12/25 20:05:42;;;;;;;5.43;2.90;;;;;;;;;;6128588;23;20173;-91
2021/12/25 20:08:53;;;;;;;5.07;2.90;;;;;;;;;;6129050;23;20225;-90
2021/12/25 20:11:59;;;;;;;4.87;2.73;;;;;;;;;;6127532;23;20258;-92
2021/12/25 20:15:06;;;;;;;4.63;3.00;;;;;;;;;;6128080;23;20297;-92
2021/12/25 20:18:12;;;;;;;9.30;4.83;;;;;;;;;;6126089;23;20176;-91
2021/12/25 20:21:18;;;;;;;4.60;2.80;;;;;;;;;;6128305;23;20262;-91
2021/12/25 20:24:25;;;;;;;6.40;2.70;;;;;;;;;;6128929;23;20173;-92
2021/12/25 20:27:31;;;;;;;3.73;2.50;;;;;;;;;;6127887;23;20201;-92
2021/12/25 20:30:37;;;;;;;5.67;3.00;;;;;;;;;;6128863;23;20215;-92
2021/12/25 20:33:42;;;;;;;5.30;2.97;;;;;;;;;;6129527;23;20169;-91
2021/12/25 20:36:48;;;;;;;5.27;2.80;;;;;;;;;;6128885;23;20206;-91
2021/12/25 20:39:56;;;;;;;4.57;2.77;;;;;;;;;;6130825;23;20165;-91
2021/12/25 20:43:02;;;;;;;7.03;2.63;;;;;;;;;;6130378;23;20180;-92
2021/12/25 20:46:07;;;;;;;5.60;3.17;;;;;;;;;;6129106;23;20266;-92
2021/12/25 20:49:13;;;;;;;6.90;3.00;;;;;;;;;;6129073;23;20221;-91
2021/12/25 20:52:19;;;;;;;4.40;2.50;;;;;;;;;;6128159;23;20170;-92
2021/12/25 20:55:26;;;;;;;6.13;3.07;;;;;;;;;;6128671;23;20171;-92
2021/12/25 20:58:31;;;;;;;6.13;2.83;;;;;;;;;;6127550;23;20168;-92
2021/12/25 23:01:54;;;;;;;8.00;3.63;;;;;;;;;;6138833;23;20543;-93
2021/12/25 23:05:06;;;;;;;8.87;4.00;;;;;;;;;;6188098;23;20172;-89
2021/12/25 23:08:16;;;;;;;6.50;3.57;;;;;;;;;;6187574;23;20195;-90
2021/12/25 23:11:26;;;;;;;6.27;4.00;;;;;;;;;;6169473;23;20156;-90
2021/12/25 23:14:32;;;;;;;5.17;3.27;;;;;;;;;;6187025;23;20204;-92
2021/12/25 23:17:44;;;;;;;7.60;3.70;;;;;;;;;;6185646;23;20167;-91
2021/12/25 23:20:50;;;;;;;6.33;3.50;;;;;;;;;;6184894;23;20164;-90
2021/12/25 23:23:56;;;;;;;4.93;2.90;;;;;;;;;;6185391;23;20240;-91
2021/12/25 23:27:01;;;;;;;5.47;3.27;;;;;;;;;;6184692;23;20208;-91
2021/12/25 23:30:08;;;;;;;7.73;3.83;;;;;;;;;;6185588;23;20168;-90
2021/12/25 23:33:15;;;;;;;8.77;4.00;;;;;;;;;;6184786;23;20276;-92
2021/12/25 23:36:23;;;;;;;7.87;4.00;;;;;;;;;;6185659;23;20208;-91
2021/12/25 23:39:29;;;;;;;7.80;4.20;;;;;;;;;;6186654;23;20208;-91
2021/12/25 23:42:41;;;;;;;7.53;4.20;;;;;;;;;;6187251;23;20173;-91
2021/12/25 23:45:47;;;;;;;6.80;3.87;;;;;;;;;;6187936;23;20156;-90
2021/12/25 23:48:54;;;;;;;9.77;4.00;;;;;;;;;;6188646;23;20218;-92
2021/12/25 23:52:00;;;;;;;6.00;3.77;;;;;;;;;;6187438;23;20168;-91
2021/12/25 23:55:06;;;;;;;7.97;4.20;;;;;;;;;;6186436;23;20183;-92
2021/12/25 23:58:14;;;;;;;8.47;3.83;;;;;;;;;;6187036;23;20204;-91
